sensor_id;sensor_type;location;lat;lon;timestamp;temperature;humidity
47540;DHT22;33280;52.152;21.052;2022-11-15T00:01:14;6.60;99.90
47540;DHT22;33280;52.152;21.052;2022-11-15T00:03:41;6.60;99.90
47540;DHT22;33280;52.152;21.052;2022-11-15T00:06:08;6.50;99.90
47540;DHT22;33280;52.152;21.052;2022-11-15T00:08:36;6.60;99.90
47540;DHT22;33280;52.152;21.052;2022-11-15T00:11:03;6.50;99.90
47540;DHT22;33280;52.152;21.052;2022-11-15T00:13:30;6.50;99.90
47540;DHT22;33280;52.152;21.052;2022-11-15T00:15:58;6.60;99.90
47540;DHT22;33280;52.152;21.052;2022-11-15T00:18:26;6.60;99.90
47540;DHT22;33280;52.152;21.052;2022-11-15T00:20:53;6.50;99.90
47540;DHT22;33280;52.152;21.052;2022-11-15T00:23:20;6.60;99.90
47540;DHT22;33280;52.152;21.052;2022-11-15T00:25:47;6.60;99.90
47540;DHT22;33280;52.152;21.052;2022-11-15T00:28:14;6.60;99.90
47540;DHT22;33280;52.152;21.052;2022-11-15T00:30:40;6.50;99.90
47540;DHT22;33280;52.152;21.052;2022-11-15T00:33:08;6.60;99.90
47540;DHT22;33280;52.152;21.052;2022-11-15T00:35:36;6.50;99.90
47540;DHT22;33280;52.152;21.052;2022-11-15T00:38:03;6.60;99.90
47540;DHT22;33280;52.152;21.052;2022-11-15T00:40:30;6.50;99.90
47540;DHT22;33280;52.152;21.052;2022-11-15T00:42:58;6.60;99.90
47540;DHT22;33280;52.152;21.052;2022-11-15T00:45:27;6.50;99.90
47540;DHT22;33280;52.152;21.052;2022-11-15T00:47:53;6.40;99.90
47540;DHT22;33280;52.152;21.052;2022-11-15T00:50:21;6.50;99.90
47540;DHT22;33280;52.152;21.052;2022-11-15T00:56:12;6.30;99.90
47540;DHT22;33280;52.152;21.052;2022-11-15T00:58:39;6.30;99.90
47540;DHT22;33280;52.152;21.052;2022-11-15T01:01:13;6.30;99.90
47540;DHT22;33280;52.152;21.052;2022-11-15T01:03:41;6.40;99.90
47540;DHT22;33280;52.152;21.052;2022-11-15T01:06:09;6.50;99.90
47540;DHT22;33280;52.152;21.052;2022-11-15T01:08:36;6.40;99.90
47540;DHT22;33280;52.152;21.052;2022-11-15T01:11:08;6.40;99.90
47540;DHT22;33280;52.152;21.052;2022-11-15T01:13:37;6.40;99.90
47540;DHT22;33280;52.152;21.052;2022-11-15T01:16:09;6.40;99.90
47540;DHT22;33280;52.152;21.052;2022-11-15T01:18:38;6.40;99.90
47540;DHT22;33280;52.152;21.052;2022-11-15T01:21:07;6.40;99.90
47540;DHT22;33280;52.152;21.052;2022-11-15T01:23:34;6.40;99.90
47540;DHT22;33280;52.152;21.052;2022-11-15T01:26:03;6.30;99.90
47540;DHT22;33280;52.152;21.052;2022-11-15T01:28:32;6.30;99.90
47540;DHT22;33280;52.152;21.052;2022-11-15T01:31:00;6.20;99.90
47540;DHT22;33280;52.152;21.052;2022-11-15T01:33:29;6.20;99.90
47540;DHT22;33280;52.152;21.052;2022-11-15T01:35:56;6.20;99.90
47540;DHT22;33280;52.152;21.052;2022-11-15T01:38:23;6.20;99.90
47540;DHT22;33280;52.152;21.052;2022-11-15T01:40:50;6.20;99.90
47540;DHT22;33280;52.152;21.052;2022-11-15T01:43:26;6.20;99.90
47540;DHT22;33280;52.152;21.052;2022-11-15T01:46:03;6.20;99.90
47540;DHT22;33280;52.152;21.052;2022-11-15T01:48:33;6.20;99.90
47540;DHT22;33280;52.152;21.052;2022-11-15T01:51:06;6.20;99.90
47540;DHT22;33280;52.152;21.052;2022-11-15T01:53:37;6.10;99.90
47540;DHT22;33280;52.152;21.052;2022-11-15T01:56:07;6.10;99.90
47540;DHT22;33280;52.152;21.052;2022-11-15T01:58:35;6.20;99.90
47540;DHT22;33280;52.152;21.052;2022-11-15T02:01:02;6.20;99.90
47540;DHT22;33280;52.152;21.052;2022-11-15T02:03:49;6.10;99.90
47540;DHT22;33280;52.152;21.052;2022-11-15T02:06:18;6.10;99.90
47540;DHT22;33280;52.152;21.052;2022-11-15T02:08:47;6.10;99.90
47540;DHT22;33280;52.152;21.052;2022-11-15T02:11:14;6.20;99.90
47540;DHT22;33280;52.152;21.052;2022-11-15T02:13:41;6.20;99.90
47540;DHT22;33280;52.152;21.052;2022-11-15T02:24:45;6.40;99.90
47540;DHT22;33280;52.152;21.052;2022-11-15T02:32:44;6.40;99.90
47540;DHT22;33280;52.152;21.052;2022-11-15T02:40:53;6.30;99.90
47540;DHT22;33280;52.152;21.052;2022-11-15T02:43:48;6.40;99.90
47540;DHT22;33280;52.152;21.052;2022-11-15T02:46:45;6.40;99.90
47540;DHT22;33280;52.152;21.052;2022-11-15T02:49:34;6.40;99.90
47540;DHT22;33280;52.152;21.052;2022-11-15T02:52:02;6.20;99.90
47540;DHT22;33280;52.152;21.052;2022-11-15T02:54:33;6.20;99.90
47540;DHT22;33280;52.152;21.052;2022-11-15T02:57:11;6.20;99.90
47540;DHT22;33280;52.152;21.052;2022-11-15T03:10:24;6.20;99.90
47540;DHT22;33280;52.152;21.052;2022-11-15T03:13:16;6.30;99.90
47540;DHT22;33280;52.152;21.052;2022-11-15T03:18:47;6.40;99.90
47540;DHT22;33280;52.152;21.052;2022-11-15T03:21:18;6.40;99.90
47540;DHT22;33280;52.152;21.052;2022-11-15T03:23:47;6.40;99.90
47540;DHT22;33280;52.152;21.052;2022-11-15T03:26:16;6.40;99.90
47540;DHT22;33280;52.152;21.052;2022-11-15T03:28:55;6.40;99.90
47540;DHT22;33280;52.152;21.052;2022-11-15T03:31:27;6.40;99.90
47540;DHT22;33280;52.152;21.052;2022-11-15T03:34:36;6.50;99.90
47540;DHT22;33280;52.152;21.052;2022-11-15T03:37:04;6.50;99.90
47540;DHT22;33280;52.152;21.052;2022-11-15T03:39:31;6.40;99.90
47540;DHT22;33280;52.152;21.052;2022-11-15T03:47:43;6.30;99.90
47540;DHT22;33280;52.152;21.052;2022-11-15T03:50:13;6.20;99.90
47540;DHT22;33280;52.152;21.052;2022-11-15T03:52:43;6.20;99.90
47540;DHT22;33280;52.152;21.052;2022-11-15T03:55:17;6.30;99.90
47540;DHT22;33280;52.152;21.052;2022-11-15T03:57:44;6.30;99.90
47540;DHT22;33280;52.152;21.052;2022-11-15T04:00:12;6.20;99.90
47540;DHT22;33280;52.152;21.052;2022-11-15T04:02:39;6.20;99.90
47540;DHT22;33280;52.152;21.052;2022-11-15T04:05:06;6.20;99.90
47540;DHT22;33280;52.152;21.052;2022-11-15T04:07:33;6.30;99.90
47540;DHT22;33280;52.152;21.052;2022-11-15T04:10:01;6.20;99.90
47540;DHT22;33280;52.152;21.052;2022-11-15T04:12:36;6.20;99.90
47540;DHT22;33280;52.152;21.052;2022-11-15T04:17:46;6.30;99.90
47540;DHT22;33280;52.152;21.052;2022-11-15T04:23:06;6.20;99.90
47540;DHT22;33280;52.152;21.052;2022-11-15T04:25:53;6.30;99.90
47540;DHT22;33280;52.152;21.052;2022-11-15T04:28:22;6.30;99.90
47540;DHT22;33280;52.152;21.052;2022-11-15T04:30:49;6.20;99.90
47540;DHT22;33280;52.152;21.052;2022-11-15T04:33:16;6.30;99.90
47540;DHT22;33280;52.152;21.052;2022-11-15T04:35:43;6.20;99.90
47540;DHT22;33280;52.152;21.052;2022-11-15T04:38:10;6.20;99.90
47540;DHT22;33280;52.152;21.052;2022-11-15T04:40:37;6.10;99.90
47540;DHT22;33280;52.152;21.052;2022-11-15T04:43:04;6.00;99.90
47540;DHT22;33280;52.152;21.052;2022-11-15T04:45:31;5.90;99.90
47540;DHT22;33280;52.152;21.052;2022-11-15T04:47:58;5.80;99.90
47540;DHT22;33280;52.152;21.052;2022-11-15T04:50:25;5.80;99.90
47540;DHT22;33280;52.152;21.052;2022-11-15T04:52:53;5.70;99.90
47540;DHT22;33280;52.152;21.052;2022-11-15T04:55:20;5.60;99.90
47540;DHT22;33280;52.152;21.052;2022-11-15T04:57:47;5.50;99.90
47540;DHT22;33280;52.152;21.052;2022-11-15T05:00:16;5.60;99.90
47540;DHT22;33280;52.152;21.052;2022-11-15T05:02:43;5.60;99.90
47540;DHT22;33280;52.152;21.052;2022-11-15T05:05:29;5.60;99.90
47540;DHT22;33280;52.152;21.052;2022-11-15T05:07:55;5.70;99.90
47540;DHT22;33280;52.152;21.052;2022-11-15T05:10:22;5.70;99.90
47540;DHT22;33280;52.152;21.052;2022-11-15T05:12:49;5.70;99.90
47540;DHT22;33280;52.152;21.052;2022-11-15T05:15:16;5.70;99.90
47540;DHT22;33280;52.152;21.052;2022-11-15T05:17:43;5.90;99.90
47540;DHT22;33280;52.152;21.052;2022-11-15T05:20:10;5.90;99.90
47540;DHT22;33280;52.152;21.052;2022-11-15T05:22:37;6.00;99.90
47540;DHT22;33280;52.152;21.052;2022-11-15T05:25:05;5.90;99.90
47540;DHT22;33280;52.152;21.052;2022-11-15T05:27:33;5.80;99.90
47540;DHT22;33280;52.152;21.052;2022-11-15T05:30:00;5.80;99.90
47540;DHT22;33280;52.152;21.052;2022-11-15T05:32:28;6.00;99.90
47540;DHT22;33280;52.152;21.052;2022-11-15T05:34:55;5.90;99.90
47540;DHT22;33280;52.152;21.052;2022-11-15T05:37:22;5.90;99.90
47540;DHT22;33280;52.152;21.052;2022-11-15T05:39:49;6.00;99.90
47540;DHT22;33280;52.152;21.052;2022-11-15T05:42:16;5.90;99.90
47540;DHT22;33280;52.152;21.052;2022-11-15T05:44:47;5.90;99.90
47540;DHT22;33280;52.152;21.052;2022-11-15T05:47:23;5.80;99.90
47540;DHT22;33280;52.152;21.052;2022-11-15T05:49:52;5.70;99.90
47540;DHT22;33280;52.152;21.052;2022-11-15T05:52:24;5.70;99.90
47540;DHT22;33280;52.152;21.052;2022-11-15T05:54:53;5.60;99.90
47540;DHT22;33280;52.152;21.052;2022-11-15T05:57:20;5.60;99.90
47540;DHT22;33280;52.152;21.052;2022-11-15T05:59:47;5.70;99.90
47540;DHT22;33280;52.152;21.052;2022-11-15T06:02:14;5.80;99.90
47540;DHT22;33280;52.152;21.052;2022-11-15T06:04:41;5.80;99.90
47540;DHT22;33280;52.152;21.052;2022-11-15T06:07:08;5.70;99.90
47540;DHT22;33280;52.152;21.052;2022-11-15T06:09:35;5.70;99.90
47540;DHT22;33280;52.152;21.052;2022-11-15T06:12:02;5.60;99.90
47540;DHT22;33280;52.152;21.052;2022-11-15T06:14:28;5.60;99.90
47540;DHT22;33280;52.152;21.052;2022-11-15T06:16:56;5.70;99.90
47540;DHT22;33280;52.152;21.052;2022-11-15T06:19:23;5.70;99.90
47540;DHT22;33280;52.152;21.052;2022-11-15T06:21:50;5.60;99.90
47540;DHT22;33280;52.152;21.052;2022-11-15T06:24:17;5.50;99.90
47540;DHT22;33280;52.152;21.052;2022-11-15T06:26:43;5.50;99.90
47540;DHT22;33280;52.152;21.052;2022-11-15T06:29:10;5.60;99.90
47540;DHT22;33280;52.152;21.052;2022-11-15T06:31:37;5.50;99.90
47540;DHT22;33280;52.152;21.052;2022-11-15T06:34:04;5.50;99.90
47540;DHT22;33280;52.152;21.052;2022-11-15T06:36:34;5.60;99.90
47540;DHT22;33280;52.152;21.052;2022-11-15T06:39:03;5.70;99.90
47540;DHT22;33280;52.152;21.052;2022-11-15T06:41:33;5.60;99.90
47540;DHT22;33280;52.152;21.052;2022-11-15T06:44:00;5.60;99.90
47540;DHT22;33280;52.152;21.052;2022-11-15T06:46:27;5.70;99.90
47540;DHT22;33280;52.152;21.052;2022-11-15T06:48:54;5.70;99.90
47540;DHT22;33280;52.152;21.052;2022-11-15T06:51:21;5.80;99.90
47540;DHT22;33280;52.152;21.052;2022-11-15T06:53:48;5.70;99.90
47540;DHT22;33280;52.152;21.052;2022-11-15T06:56:15;5.60;99.90
47540;DHT22;33280;52.152;21.052;2022-11-15T06:58:42;5.60;99.90
47540;DHT22;33280;52.152;21.052;2022-11-15T07:01:11;5.70;99.90
47540;DHT22;33280;52.152;21.052;2022-11-15T07:03:40;5.60;99.90
47540;DHT22;33280;52.152;21.052;2022-11-15T07:06:09;5.60;99.90
47540;DHT22;33280;52.152;21.052;2022-11-15T07:08:36;5.50;99.90
47540;DHT22;33280;52.152;21.052;2022-11-15T07:11:06;5.60;99.90
47540;DHT22;33280;52.152;21.052;2022-11-15T07:13:34;5.30;99.90
47540;DHT22;33280;52.152;21.052;2022-11-15T07:16:05;5.30;99.90
47540;DHT22;33280;52.152;21.052;2022-11-15T07:18:38;5.40;99.90
47540;DHT22;33280;52.152;21.052;2022-11-15T07:21:07;5.50;99.90
47540;DHT22;33280;52.152;21.052;2022-11-15T07:23:39;5.40;99.90
47540;DHT22;33280;52.152;21.052;2022-11-15T07:26:07;5.40;99.90
47540;DHT22;33280;52.152;21.052;2022-11-15T07:28:35;5.40;99.90
47540;DHT22;33280;52.152;21.052;2022-11-15T07:31:07;5.30;99.90
47540;DHT22;33280;52.152;21.052;2022-11-15T07:33:35;5.40;99.90
47540;DHT22;33280;52.152;21.052;2022-11-15T07:36:04;5.40;99.90
47540;DHT22;33280;52.152;21.052;2022-11-15T07:38:33;5.30;99.90
47540;DHT22;33280;52.152;21.052;2022-11-15T07:41:08;5.30;99.90
47540;DHT22;33280;52.152;21.052;2022-11-15T07:43:35;5.20;99.90
47540;DHT22;33280;52.152;21.052;2022-11-15T07:46:06;5.20;99.90
47540;DHT22;33280;52.152;21.052;2022-11-15T07:48:37;5.30;99.90
47540;DHT22;33280;52.152;21.052;2022-11-15T07:51:14;5.40;99.90
47540;DHT22;33280;52.152;21.052;2022-11-15T07:53:43;5.30;99.90
47540;DHT22;33280;52.152;21.052;2022-11-15T07:56:13;5.40;99.90
47540;DHT22;33280;52.152;21.052;2022-11-15T07:58:40;5.30;99.90
47540;DHT22;33280;52.152;21.052;2022-11-15T08:01:09;5.40;99.90
47540;DHT22;33280;52.152;21.052;2022-11-15T08:03:37;5.40;99.90
47540;DHT22;33280;52.152;21.052;2022-11-15T08:06:04;5.50;99.90
47540;DHT22;33280;52.152;21.052;2022-11-15T08:08:31;5.50;99.90
47540;DHT22;33280;52.152;21.052;2022-11-15T08:10:59;5.40;99.90
47540;DHT22;33280;52.152;21.052;2022-11-15T08:13:26;5.60;99.90
47540;DHT22;33280;52.152;21.052;2022-11-15T08:15:58;5.60;99.90
47540;DHT22;33280;52.152;21.052;2022-11-15T08:18:26;5.70;99.90
47540;DHT22;33280;52.152;21.052;2022-11-15T08:20:53;5.70;99.90
47540;DHT22;33280;52.152;21.052;2022-11-15T08:23:19;5.80;99.90
47540;DHT22;33280;52.152;21.052;2022-11-15T08:25:46;5.70;99.90
47540;DHT22;33280;52.152;21.052;2022-11-15T08:28:16;5.70;99.90
47540;DHT22;33280;52.152;21.052;2022-11-15T08:30:44;5.70;99.90
47540;DHT22;33280;52.152;21.052;2022-11-15T08:33:14;5.70;99.90
47540;DHT22;33280;52.152;21.052;2022-11-15T08:35:42;5.70;99.90
47540;DHT22;33280;52.152;21.052;2022-11-15T08:38:10;5.80;99.90
47540;DHT22;33280;52.152;21.052;2022-11-15T08:40:37;5.70;99.90
47540;DHT22;33280;52.152;21.052;2022-11-15T08:43:05;5.70;99.90
47540;DHT22;33280;52.152;21.052;2022-11-15T08:45:34;5.60;99.90
47540;DHT22;33280;52.152;21.052;2022-11-15T08:48:02;5.60;99.90
47540;DHT22;33280;52.152;21.052;2022-11-15T08:50:30;5.80;99.90
47540;DHT22;33280;52.152;21.052;2022-11-15T08:52:57;5.80;99.90
47540;DHT22;33280;52.152;21.052;2022-11-15T08:55:24;5.80;99.90
47540;DHT22;33280;52.152;21.052;2022-11-15T08:57:51;5.70;99.90
47540;DHT22;33280;52.152;21.052;2022-11-15T09:00:18;5.70;99.90
47540;DHT22;33280;52.152;21.052;2022-11-15T09:02:46;5.70;99.90
47540;DHT22;33280;52.152;21.052;2022-11-15T09:05:13;5.70;99.90
47540;DHT22;33280;52.152;21.052;2022-11-15T09:07:42;5.70;99.90
47540;DHT22;33280;52.152;21.052;2022-11-15T09:10:09;5.70;99.90
47540;DHT22;33280;52.152;21.052;2022-11-15T09:12:36;5.70;99.90
47540;DHT22;33280;52.152;21.052;2022-11-15T09:15:05;5.80;99.90
47540;DHT22;33280;52.152;21.052;2022-11-15T09:17:32;5.80;99.90
47540;DHT22;33280;52.152;21.052;2022-11-15T09:19:59;5.90;99.90
47540;DHT22;33280;52.152;21.052;2022-11-15T09:22:26;6.00;99.90
47540;DHT22;33280;52.152;21.052;2022-11-15T09:24:53;6.10;99.90
47540;DHT22;33280;52.152;21.052;2022-11-15T09:27:20;6.10;99.90
47540;DHT22;33280;52.152;21.052;2022-11-15T09:29:49;6.10;99.90
47540;DHT22;33280;52.152;21.052;2022-11-15T09:32:17;6.20;99.90
47540;DHT22;33280;52.152;21.052;2022-11-15T09:34:44;6.40;99.90
47540;DHT22;33280;52.152;21.052;2022-11-15T09:37:11;6.40;99.90
47540;DHT22;33280;52.152;21.052;2022-11-15T09:39:39;6.30;99.90
47540;DHT22;33280;52.152;21.052;2022-11-15T09:42:47;6.30;99.90
47540;DHT22;33280;52.152;21.052;2022-11-15T09:49:04;6.10;99.90
47540;DHT22;33280;52.152;21.052;2022-11-15T09:52:08;5.90;99.90
47540;DHT22;33280;52.152;21.052;2022-11-15T09:55:14;5.90;99.90
47540;DHT22;33280;52.152;21.052;2022-11-15T10:05:01;6.00;99.90
47540;DHT22;33280;52.152;21.052;2022-11-15T10:08:20;6.00;99.90
47540;DHT22;33280;52.152;21.052;2022-11-15T10:10:53;5.90;99.90
47540;DHT22;33280;52.152;21.052;2022-11-15T10:24:37;6.20;99.90
47540;DHT22;33280;52.152;21.052;2022-11-15T10:27:20;6.20;99.90
47540;DHT22;33280;52.152;21.052;2022-11-15T10:30:02;6.20;99.90
47540;DHT22;33280;52.152;21.052;2022-11-15T10:32:45;6.20;99.90
47540;DHT22;33280;52.152;21.052;2022-11-15T10:35:29;6.20;99.90
47540;DHT22;33280;52.152;21.052;2022-11-15T10:38:11;6.20;99.90
47540;DHT22;33280;52.152;21.052;2022-11-15T10:41:07;6.40;99.90
47540;DHT22;33280;52.152;21.052;2022-11-15T10:43:34;6.30;99.90
47540;DHT22;33280;52.152;21.052;2022-11-15T10:46:19;6.30;99.90
47540;DHT22;33280;52.152;21.052;2022-11-15T10:49:18;6.40;99.90
47540;DHT22;33280;52.152;21.052;2022-11-15T10:51:58;6.40;99.90
47540;DHT22;33280;52.152;21.052;2022-11-15T10:54:42;6.50;99.90
47540;DHT22;33280;52.152;21.052;2022-11-15T10:57:13;6.40;99.90
47540;DHT22;33280;52.152;21.052;2022-11-15T10:59:46;6.50;99.90
47540;DHT22;33280;52.152;21.052;2022-11-15T11:02:33;6.50;99.90
47540;DHT22;33280;52.152;21.052;2022-11-15T11:05:01;6.50;99.90
47540;DHT22;33280;52.152;21.052;2022-11-15T11:07:34;6.60;99.90
47540;DHT22;33280;52.152;21.052;2022-11-15T11:10:18;6.70;99.90
47540;DHT22;33280;52.152;21.052;2022-11-15T11:13:25;6.50;99.90
47540;DHT22;33280;52.152;21.052;2022-11-15T11:27:57;6.50;99.90
47540;DHT22;33280;52.152;21.052;2022-11-15T11:33:30;6.60;99.90
47540;DHT22;33280;52.152;21.052;2022-11-15T11:36:11;6.60;99.90
47540;DHT22;33280;52.152;21.052;2022-11-15T11:44:10;6.80;99.90
47540;DHT22;33280;52.152;21.052;2022-11-15T11:52:27;7.00;99.90
47540;DHT22;33280;52.152;21.052;2022-11-15T11:58:04;7.00;99.90
47540;DHT22;33280;52.152;21.052;2022-11-15T12:00:35;7.00;99.90
47540;DHT22;33280;52.152;21.052;2022-11-15T12:03:11;7.20;99.90
47540;DHT22;33280;52.152;21.052;2022-11-15T12:05:44;7.00;99.90
47540;DHT22;33280;52.152;21.052;2022-11-15T12:13:58;7.20;99.90
47540;DHT22;33280;52.152;21.052;2022-11-15T12:16:28;7.20;99.90
47540;DHT22;33280;52.152;21.052;2022-11-15T12:18:58;6.90;99.90
47540;DHT22;33280;52.152;21.052;2022-11-15T12:21:34;7.00;99.90
47540;DHT22;33280;52.152;21.052;2022-11-15T12:24:11;7.00;99.90
47540;DHT22;33280;52.152;21.052;2022-11-15T12:27:05;7.00;99.90
47540;DHT22;33280;52.152;21.052;2022-11-15T12:29:37;7.10;99.90
47540;DHT22;33280;52.152;21.052;2022-11-15T12:34:50;7.20;99.90
47540;DHT22;33280;52.152;21.052;2022-11-15T12:43:33;7.30;99.90
47540;DHT22;33280;52.152;21.052;2022-11-15T12:46:03;7.40;99.90
47540;DHT22;33280;52.152;21.052;2022-11-15T12:51:04;7.20;99.90
47540;DHT22;33280;52.152;21.052;2022-11-15T12:53:32;7.40;99.90
47540;DHT22;33280;52.152;21.052;2022-11-15T12:59:00;7.10;99.90
47540;DHT22;33280;52.152;21.052;2022-11-15T13:06:44;7.30;99.90
47540;DHT22;33280;52.152;21.052;2022-11-15T13:17:52;7.60;99.90
47540;DHT22;33280;52.152;21.052;2022-11-15T13:20:22;7.60;99.90
47540;DHT22;33280;52.152;21.052;2022-11-15T13:23:09;7.70;99.90
47540;DHT22;33280;52.152;21.052;2022-11-15T13:33:20;7.70;99.90
47540;DHT22;33280;52.152;21.052;2022-11-15T13:35:53;7.60;99.90
47540;DHT22;33280;52.152;21.052;2022-11-15T13:38:29;7.50;99.90
47540;DHT22;33280;52.152;21.052;2022-11-15T13:40:58;7.40;99.90
47540;DHT22;33280;52.152;21.052;2022-11-15T13:46:07;7.70;99.90
47540;DHT22;33280;52.152;21.052;2022-11-15T13:48:36;7.60;99.90
47540;DHT22;33280;52.152;21.052;2022-11-15T13:52:07;7.70;99.90
47540;DHT22;33280;52.152;21.052;2022-11-15T13:54:29;7.60;99.90
47540;DHT22;33280;52.152;21.052;2022-11-15T13:59:34;7.70;99.90
47540;DHT22;33280;52.152;21.052;2022-11-15T14:02:29;7.80;99.90
47540;DHT22;33280;52.152;21.052;2022-11-15T14:04:58;7.60;99.90
47540;DHT22;33280;52.152;21.052;2022-11-15T14:07:28;7.40;99.90
47540;DHT22;33280;52.152;21.052;2022-11-15T14:10:24;7.50;99.90
47540;DHT22;33280;52.152;21.052;2022-11-15T14:12:51;7.50;99.90
47540;DHT22;33280;52.152;21.052;2022-11-15T14:17:53;7.60;99.90
47540;DHT22;33280;52.152;21.052;2022-11-15T14:20:40;7.70;99.90
47540;DHT22;33280;52.152;21.052;2022-11-15T14:23:25;7.70;99.90
47540;DHT22;33280;52.152;21.052;2022-11-15T14:25:59;7.60;99.90
47540;DHT22;33280;52.152;21.052;2022-11-15T14:30:56;7.80;99.90
47540;DHT22;33280;52.152;21.052;2022-11-15T14:33:33;7.80;99.90
47540;DHT22;33280;52.152;21.052;2022-11-15T14:36:18;7.70;99.90
47540;DHT22;33280;52.152;21.052;2022-11-15T14:38:46;7.60;99.90
47540;DHT22;33280;52.152;21.052;2022-11-15T14:41:24;7.50;99.90
47540;DHT22;33280;52.152;21.052;2022-11-15T14:43:52;7.50;99.90
47540;DHT22;33280;52.152;21.052;2022-11-15T14:46:22;7.50;99.90
47540;DHT22;33280;52.152;21.052;2022-11-15T14:48:51;7.50;99.90
47540;DHT22;33280;52.152;21.052;2022-11-15T14:51:19;7.50;99.90
47540;DHT22;33280;52.152;21.052;2022-11-15T14:53:46;7.60;99.90
47540;DHT22;33280;52.152;21.052;2022-11-15T14:56:14;7.70;99.90
47540;DHT22;33280;52.152;21.052;2022-11-15T14:58:42;7.60;99.90
47540;DHT22;33280;52.152;21.052;2022-11-15T15:01:14;7.50;99.90
47540;DHT22;33280;52.152;21.052;2022-11-15T15:03:46;7.50;99.90
47540;DHT22;33280;52.152;21.052;2022-11-15T15:06:13;7.60;99.90
47540;DHT22;33280;52.152;21.052;2022-11-15T15:08:45;7.50;99.90
47540;DHT22;33280;52.152;21.052;2022-11-15T15:11:21;7.40;99.90
47540;DHT22;33280;52.152;21.052;2022-11-15T15:13:48;7.60;99.90
47540;DHT22;33280;52.152;21.052;2022-11-15T15:16:15;7.50;99.90
47540;DHT22;33280;52.152;21.052;2022-11-15T15:18:42;7.50;99.90
47540;DHT22;33280;52.152;21.052;2022-11-15T15:21:23;7.60;99.90
47540;DHT22;33280;52.152;21.052;2022-11-15T15:23:51;7.60;99.90
47540;DHT22;33280;52.152;21.052;2022-11-15T15:26:21;7.60;99.90
47540;DHT22;33280;52.152;21.052;2022-11-15T15:28:48;7.70;99.90
47540;DHT22;33280;52.152;21.052;2022-11-15T15:31:15;7.50;99.90
47540;DHT22;33280;52.152;21.052;2022-11-15T15:33:42;7.40;99.90
47540;DHT22;33280;52.152;21.052;2022-11-15T15:36:14;7.60;99.90
47540;DHT22;33280;52.152;21.052;2022-11-15T15:38:41;7.50;99.90
47540;DHT22;33280;52.152;21.052;2022-11-15T15:41:12;7.50;99.90
47540;DHT22;33280;52.152;21.052;2022-11-15T15:43:39;7.40;99.90
47540;DHT22;33280;52.152;21.052;2022-11-15T15:46:12;7.40;99.90
47540;DHT22;33280;52.152;21.052;2022-11-15T15:48:39;7.50;99.90
47540;DHT22;33280;52.152;21.052;2022-11-15T15:51:06;7.40;99.90
47540;DHT22;33280;52.152;21.052;2022-11-15T15:53:45;7.40;99.90
47540;DHT22;33280;52.152;21.052;2022-11-15T15:56:12;7.40;99.90
47540;DHT22;33280;52.152;21.052;2022-11-15T15:58:39;7.40;99.90
47540;DHT22;33280;52.152;21.052;2022-11-15T16:01:06;7.20;99.90
47540;DHT22;33280;52.152;21.052;2022-11-15T16:03:33;7.40;99.90
47540;DHT22;33280;52.152;21.052;2022-11-15T16:06:00;7.30;99.90
47540;DHT22;33280;52.152;21.052;2022-11-15T16:08:27;7.30;99.90
47540;DHT22;33280;52.152;21.052;2022-11-15T16:11:13;7.30;99.90
47540;DHT22;33280;52.152;21.052;2022-11-15T16:13:40;7.30;99.90
47540;DHT22;33280;52.152;21.052;2022-11-15T16:16:13;7.30;99.90
47540;DHT22;33280;52.152;21.052;2022-11-15T16:18:41;7.30;99.90
47540;DHT22;33280;52.152;21.052;2022-11-15T16:21:08;7.20;99.90
47540;DHT22;33280;52.152;21.052;2022-11-15T16:23:35;7.20;99.90
47540;DHT22;33280;52.152;21.052;2022-11-15T16:26:14;7.10;99.90
47540;DHT22;33280;52.152;21.052;2022-11-15T16:28:44;7.20;99.90
47540;DHT22;33280;52.152;21.052;2022-11-15T16:31:12;7.20;99.90
47540;DHT22;33280;52.152;21.052;2022-11-15T16:33:40;7.10;99.90
47540;DHT22;33280;52.152;21.052;2022-11-15T16:36:21;7.10;99.90
47540;DHT22;33280;52.152;21.052;2022-11-15T16:38:55;7.10;99.90
47540;DHT22;33280;52.152;21.052;2022-11-15T16:41:22;7.00;99.90
47540;DHT22;33280;52.152;21.052;2022-11-15T16:43:49;6.90;99.90
47540;DHT22;33280;52.152;21.052;2022-11-15T16:46:25;6.80;99.90
47540;DHT22;33280;52.152;21.052;2022-11-15T16:48:52;6.80;99.90
47540;DHT22;33280;52.152;21.052;2022-11-15T16:51:20;6.90;99.90
47540;DHT22;33280;52.152;21.052;2022-11-15T16:53:48;6.80;99.90
47540;DHT22;33280;52.152;21.052;2022-11-15T16:56:28;6.70;99.90
47540;DHT22;33280;52.152;21.052;2022-11-15T16:58:56;6.70;99.90
47540;DHT22;33280;52.152;21.052;2022-11-15T17:01:35;6.70;99.90
47540;DHT22;33280;52.152;21.052;2022-11-15T17:04:03;6.70;99.90
47540;DHT22;33280;52.152;21.052;2022-11-15T17:06:39;6.70;99.90
47540;DHT22;33280;52.152;21.052;2022-11-15T17:09:13;6.80;99.90
47540;DHT22;33280;52.152;21.052;2022-11-15T17:11:42;6.70;99.90
47540;DHT22;33280;52.152;21.052;2022-11-15T17:14:10;6.60;99.90
47540;DHT22;33280;52.152;21.052;2022-11-15T17:16:37;6.60;99.90
47540;DHT22;33280;52.152;21.052;2022-11-15T17:19:13;6.60;99.90
47540;DHT22;33280;52.152;21.052;2022-11-15T17:21:41;6.70;99.90
47540;DHT22;33280;52.152;21.052;2022-11-15T17:24:09;6.70;99.90
47540;DHT22;33280;52.152;21.052;2022-11-15T17:26:37;6.70;99.90
47540;DHT22;33280;52.152;21.052;2022-11-15T17:29:06;6.70;99.90
47540;DHT22;33280;52.152;21.052;2022-11-15T17:31:34;6.70;99.90
47540;DHT22;33280;52.152;21.052;2022-11-15T17:34:03;6.60;99.90
47540;DHT22;33280;52.152;21.052;2022-11-15T17:36:31;6.60;99.90
47540;DHT22;33280;52.152;21.052;2022-11-15T17:39:01;6.70;99.90
47540;DHT22;33280;52.152;21.052;2022-11-15T17:41:28;6.60;99.90
47540;DHT22;33280;52.152;21.052;2022-11-15T17:43:56;6.70;99.90
47540;DHT22;33280;52.152;21.052;2022-11-15T17:46:27;6.70;99.90
47540;DHT22;33280;52.152;21.052;2022-11-15T17:48:55;6.70;99.90
47540;DHT22;33280;52.152;21.052;2022-11-15T17:51:23;6.60;99.90
47540;DHT22;33280;52.152;21.052;2022-11-15T17:53:53;6.40;99.90
47540;DHT22;33280;52.152;21.052;2022-11-15T17:56:28;6.50;99.90
47540;DHT22;33280;52.152;21.052;2022-11-15T17:58:59;6.40;99.90
47540;DHT22;33280;52.152;21.052;2022-11-15T18:03:55;6.40;99.90
47540;DHT22;33280;52.152;21.052;2022-11-15T18:06:23;6.40;99.90
47540;DHT22;33280;52.152;21.052;2022-11-15T18:08:52;6.50;99.90
47540;DHT22;33280;52.152;21.052;2022-11-15T18:11:30;6.40;99.90
47540;DHT22;33280;52.152;21.052;2022-11-15T18:14:00;6.30;99.90
47540;DHT22;33280;52.152;21.052;2022-11-15T18:16:29;6.40;99.90
47540;DHT22;33280;52.152;21.052;2022-11-15T18:18:57;6.30;99.90
47540;DHT22;33280;52.152;21.052;2022-11-15T18:21:29;6.30;99.90
47540;DHT22;33280;52.152;21.052;2022-11-15T18:23:58;6.20;99.90
47540;DHT22;33280;52.152;21.052;2022-11-15T18:26:27;6.20;99.90
47540;DHT22;33280;52.152;21.052;2022-11-15T18:28:56;6.20;99.90